createdAt,value
2017-05-21T00:00:13.620Z,1002.32
2017-05-21T00:01:23.995Z,1002.25
2017-05-21T00:02:33.411Z,1002.25
2017-05-21T00:03:43.775Z,1002.21
2017-05-21T00:04:54.136Z,1002.22
2017-05-21T00:06:04.547Z,1002.14
2017-05-21T00:07:14.598Z,1002.18
2017-05-21T00:08:24.965Z,1002.1
2017-05-21T00:09:35.334Z,1002.09
2017-05-21T00:10:45.730Z,1002.11
2017-05-21T00:11:56.148Z,1002.09
2017-05-21T00:13:06.191Z,1002.1
2017-05-21T00:14:16.259Z,1002.08
2017-05-21T00:15:26.343Z,1002.23
2017-05-21T00:16:36.696Z,1002.1
2017-05-21T00:17:46.466Z,1002.12
2017-05-21T00:18:56.862Z,1002.18
2017-05-21T00:20:06.907Z,1002.21
2017-05-21T00:21:17.293Z,1002.21
2017-05-21T00:22:27.652Z,1002.22
2017-05-21T00:23:38.069Z,1002.29
2017-05-21T00:24:48.107Z,1002.32
2017-05-21T00:25:58.176Z,1002.31
2017-05-21T00:27:08.519Z,1002.3
2017-05-21T00:28:18.881Z,1002.36
2017-05-21T00:29:29.309Z,1002.32
2017-05-21T00:30:39.040Z,1002.3
2017-05-21T00:31:49.406Z,1002.33
2017-05-21T00:32:59.762Z,1002.34
2017-05-21T00:34:09.814Z,1002.37
2017-05-21T00:35:19.919Z,1002.34
2017-05-21T00:36:29.971Z,1002.38
2017-05-21T00:37:40.323Z,1002.4
2017-05-21T00:38:50.701Z,1002.31
2017-05-21T00:40:00.750Z,1002.34
2017-05-21T00:41:10.846Z,1002.35
2017-05-21T00:42:21.197Z,1002.37
2017-05-21T00:43:31.251Z,1002.4
2017-05-21T00:44:41.305Z,1002.36
2017-05-21T00:45:51.039Z,1002.4
2017-05-21T00:47:01.467Z,1002.37
2017-05-21T00:48:11.831Z,1002.39
2017-05-21T00:49:22.208Z,1002.36
2017-05-21T00:50:32.581Z,1002.43
2017-05-21T00:51:42.925Z,1002.38
2017-05-21T00:52:53.273Z,1002.36
2017-05-21T00:54:03.635Z,1002.39
2017-05-21T00:55:13.994Z,1002.41
2017-05-21T00:56:24.348Z,1002.37
2017-05-21T00:57:34.724Z,1002.36
2017-05-21T00:58:45.156Z,1002.39
2017-05-21T00:59:55.568Z,1002.45
2017-05-21T01:01:05.930Z,1002.44
2017-05-21T01:02:16.290Z,1002.46
2017-05-21T01:03:26.051Z,1002.48
2017-05-21T01:04:36.101Z,1002.47
2017-05-21T01:05:46.454Z,1002.43
2017-05-21T01:06:56.829Z,1002.47
2017-05-21T01:08:07.178Z,1002.47
2017-05-21T01:09:17.528Z,1002.49
2017-05-21T01:10:27.941Z,1002.46
2017-05-21T01:11:38.284Z,1002.52
2017-05-21T01:12:48.332Z,1002.5
2017-05-21T01:13:58.374Z,1002.48
2017-05-21T01:15:08.410Z,1002.48
2017-05-21T01:16:18.655Z,1002.52
2017-05-21T01:17:28.683Z,1002.5
2017-05-21T01:18:39.026Z,1002.51
2017-05-21T01:19:49.069Z,1002.51
2017-05-21T01:20:59.425Z,1002.44
2017-05-21T01:22:09.829Z,1002.52
2017-05-21T01:23:20.200Z,1002.44
2017-05-21T01:24:30.583Z,1002.46
2017-05-21T01:25:40.928Z,1002.46
2017-05-21T01:26:51.282Z,1002.49
2017-05-21T01:28:01.740Z,1002.33
2017-05-21T01:29:12.209Z,1002.41
2017-05-21T01:30:22.551Z,1002.38
2017-05-21T01:31:32.918Z,1002.39
2017-05-21T01:32:43.293Z,1002.39
2017-05-21T01:33:54.138Z,1002.28
2017-05-21T01:35:04.504Z,1002.28
2017-05-21T01:36:14.880Z,1002.32
2017-05-21T01:37:24.906Z,1002.32
2017-05-21T01:38:34.949Z,1002.25
2017-05-21T01:39:45.031Z,1002.34
2017-05-21T01:40:55.384Z,1002.34
2017-05-21T01:42:05.728Z,1002.34
2017-05-21T01:43:16.064Z,1002.46
2017-05-21T01:44:26.091Z,1002.44
2017-05-21T01:45:36.491Z,1002.48
2017-05-21T01:46:46.522Z,1002.54
2017-05-21T01:47:56.859Z,1002.51
2017-05-21T01:49:07.212Z,1002.61
2017-05-21T01:50:17.244Z,1002.62
2017-05-21T01:51:27.654Z,1002.6
2017-05-21T01:52:37.691Z,1002.61
2017-05-21T01:53:48.084Z,1002.65
2017-05-21T01:54:58.448Z,1002.61
2017-05-21T01:56:08.476Z,1002.61
2017-05-21T01:57:18.552Z,1002.65
2017-05-21T01:58:28.943Z,1002.6
2017-05-21T01:59:38.992Z,1002.65
2017-05-21T02:00:49.338Z,1002.65
2017-05-21T02:01:59.367Z,1002.67
2017-05-21T02:03:09.761Z,1002.71
2017-05-21T02:04:20.116Z,1002.69
2017-05-21T02:05:30.162Z,1002.7
2017-05-21T02:06:40.208Z,1002.72
2017-05-21T02:07:50.574Z,1002.69
2017-05-21T02:09:00.970Z,1002.73
2017-05-21T02:10:11.302Z,1002.68
2017-05-21T02:11:21.327Z,1002.74
2017-05-21T02:12:31.356Z,1002.69
2017-05-21T02:13:41.701Z,1002.72
2017-05-21T02:14:52.056Z,1002.67
2017-05-21T02:16:02.403Z,1002.71
2017-05-21T02:17:12.752Z,1002.79
2017-05-21T02:18:22.794Z,1002.83
2017-05-21T02:19:32.846Z,1002.88
2017-05-21T02:20:43.199Z,1002.87
2017-05-21T02:21:53.560Z,1002.89
2017-05-21T02:23:03.951Z,1002.84
2017-05-21T02:24:14.290Z,1002.78
2017-05-21T02:25:24.326Z,1002.88
2017-05-21T02:26:34.716Z,1002.87
2017-05-21T02:27:45.069Z,1002.89
2017-05-21T02:28:55.431Z,1002.87
2017-05-21T02:30:05.781Z,1002.9
2017-05-21T02:31:16.041Z,1002.89
2017-05-21T02:32:26.116Z,1002.87
2017-05-21T02:33:36.460Z,1002.89
2017-05-21T02:34:46.508Z,1002.9
2017-05-21T02:35:56.608Z,1002.88
2017-05-21T02:37:06.979Z,1002.88
2017-05-21T02:38:17.376Z,1002.94
2017-05-21T02:39:27.716Z,1002.89
2017-05-21T02:40:37.756Z,1002.91
2017-05-21T02:41:48.119Z,1002.94
2017-05-21T02:42:58.149Z,1003.01
2017-05-21T02:44:08.193Z,1003.01
2017-05-21T02:45:18.276Z,1003.06
2017-05-21T02:46:28.312Z,1003.11
2017-05-21T02:47:38.667Z,1003.09
2017-05-21T02:48:49.031Z,1003.06
2017-05-21T02:49:59.377Z,1003.08
2017-05-21T02:51:09.743Z,1003.03
2017-05-21T02:52:20.091Z,1003.18
2017-05-21T02:53:30.430Z,1003.15
2017-05-21T02:54:40.456Z,1003.2
2017-05-21T02:55:50.808Z,1003.2
2017-05-21T02:57:00.908Z,1003.19
2017-05-21T02:58:11.260Z,1003.23
2017-05-21T02:59:21.622Z,1003.25
2017-05-21T03:00:31.676Z,1003.23
2017-05-21T03:01:42.034Z,1003.21
2017-05-21T03:32:42.387Z,1003.52
2017-05-21T03:33:52.738Z,1003.51
2017-05-21T03:35:02.787Z,1003.48
2017-05-21T03:36:13.126Z,1003.54
2017-05-21T03:37:23.162Z,1003.58
2017-05-21T03:38:33.245Z,1003.53
2017-05-21T03:39:43.285Z,1003.56
2017-05-21T03:40:53.321Z,1003.52
2017-05-21T03:42:03.664Z,1003.65
2017-05-21T03:43:13.747Z,1003.6
2017-05-21T03:44:23.500Z,1003.6
2017-05-21T03:45:33.841Z,1003.6
2017-05-21T03:46:44.217Z,1003.57
2017-05-21T03:47:54.567Z,1003.55
2017-05-21T03:49:04.908Z,1003.51
2017-05-21T03:50:14.657Z,1003.56
2017-05-21T03:51:24.708Z,1003.53
2017-05-21T03:52:35.042Z,1003.54
2017-05-21T03:53:45.075Z,1003.51
2017-05-21T03:54:55.113Z,1003.52
2017-05-21T03:56:05.510Z,1003.53
2017-05-21T03:57:15.871Z,1003.55
2017-05-21T03:58:26.214Z,1003.52
2017-05-21T03:59:36.554Z,1003.54
2017-05-21T04:00:46.897Z,1003.57
2017-05-21T04:01:57.298Z,1003.62
2017-05-21T04:03:07.650Z,1003.62
2017-05-21T04:04:18.013Z,1003.69
2017-05-21T04:05:28.361Z,1003.67
2017-05-21T04:06:38.699Z,1003.7
2017-05-21T04:07:49.052Z,1003.75
2017-05-21T04:08:59.399Z,1003.69
2017-05-21T04:10:09.133Z,1003.66
2017-05-21T04:11:19.550Z,1003.66
2017-05-21T04:12:29.902Z,1003.76
2017-05-21T04:13:40.299Z,1003.68
2017-05-21T04:14:50.651Z,1003.69
2017-05-21T04:16:01.008Z,1003.7
2017-05-21T04:17:11.029Z,1003.73
2017-05-21T04:18:21.071Z,1003.75
2017-05-21T04:19:31.426Z,1003.77
2017-05-21T04:20:41.756Z,1003.72
2017-05-21T04:21:52.129Z,1003.77
2017-05-21T04:23:02.478Z,1003.78
2017-05-21T04:24:12.535Z,1003.72
2017-05-21T04:25:22.875Z,1003.75
2017-05-21T04:26:33.222Z,1003.84
2017-05-21T04:27:43.572Z,1003.81
2017-05-21T04:28:53.617Z,1003.71
2017-05-21T04:30:03.967Z,1003.77
2017-05-21T04:31:13.996Z,1003.77
2017-05-21T04:32:24.339Z,1003.73
2017-05-21T04:33:34.918Z,1003.76
2017-05-21T04:34:45.261Z,1003.81
2017-05-21T04:35:55.636Z,1003.78
2017-05-21T04:37:05.984Z,1003.8
2017-05-21T04:38:16.328Z,1003.83
2017-05-21T04:39:26.366Z,1003.8
2017-05-21T04:40:36.414Z,1003.88
2017-05-21T04:41:46.452Z,1003.88
2017-05-21T04:42:56.518Z,1003.89
2017-05-21T04:44:06.572Z,1003.88
2017-05-21T04:45:16.930Z,1003.91
2017-05-21T04:46:26.954Z,1003.86
2017-05-21T04:47:37.307Z,1003.95
2017-05-21T04:48:47.664Z,1003.95
2017-05-21T04:49:58.173Z,1003.95
2017-05-21T04:51:08.521Z,1003.97
2017-05-21T04:52:18.873Z,1003.92
2017-05-21T04:53:28.900Z,1003.93
2017-05-21T04:54:39.292Z,1004
2017-05-21T04:55:49.332Z,1003.95
2017-05-21T04:56:59.679Z,1003.96
2017-05-21T04:58:10.026Z,1003.95
2017-05-21T04:59:20.078Z,1003.98
2017-05-21T05:00:30.468Z,1003.95
2017-05-21T05:01:40.182Z,1003.97
2017-05-21T05:02:50.216Z,1003.92
2017-05-21T05:04:00.581Z,1004.01
2017-05-21T05:05:10.629Z,1004.02
2017-05-21T05:06:21.017Z,1003.99
2017-05-21T05:07:31.057Z,1004.07
2017-05-21T05:08:41.409Z,1003.99
2017-05-21T05:09:51.455Z,1004.08
2017-05-21T05:11:01.846Z,1003.99
2017-05-21T05:12:11.934Z,1004.06
2017-05-21T05:13:22.294Z,1004.12
2017-05-21T05:14:32.652Z,1004.12
2017-05-21T05:15:43.009Z,1004.09
2017-05-21T05:16:52.420Z,1004.16
2017-05-21T05:18:02.505Z,1004.14
2017-05-21T05:19:12.859Z,1004.1
2017-05-21T05:20:22.581Z,1004.17
2017-05-21T05:21:32.620Z,1004.16
2017-05-21T05:22:42.655Z,1004.2
2017-05-21T05:23:53.012Z,1004.23
2017-05-21T05:25:03.377Z,1004.19
2017-05-21T05:26:13.095Z,1004.21
2017-05-21T05:27:23.433Z,1004.23
2017-05-21T05:28:33.483Z,1004.23
2017-05-21T05:29:43.829Z,1004.21
2017-05-21T05:30:54.182Z,1004.26
2017-05-21T05:32:04.529Z,1004.25
2017-05-21T05:33:14.887Z,1004.27
2017-05-21T05:34:25.237Z,1004.26
2017-05-21T05:35:35.662Z,1004.29
2017-05-21T05:36:45.371Z,1004.24
2017-05-21T05:37:55.724Z,1004.3
2017-05-21T05:39:06.065Z,1004.31
2017-05-21T05:40:16.410Z,1004.27
2017-05-21T05:41:26.454Z,1004.34
2017-05-21T05:42:36.809Z,1004.33
2017-05-21T05:43:47.180Z,1004.45
2017-05-21T05:44:57.220Z,1004.42
2017-05-21T05:46:07.274Z,1004.36
2017-05-21T05:47:17.313Z,1004.38
2017-05-21T05:48:27.352Z,1004.36
2017-05-21T05:49:37.396Z,1004.39
2017-05-21T05:50:47.745Z,1004.38
2017-05-21T05:51:57.790Z,1004.4
2017-05-21T05:53:07.810Z,1004.4
2017-05-21T05:54:17.851Z,1004.43
2017-05-21T05:55:27.909Z,1004.44
2017-05-21T05:56:38.254Z,1004.46
2017-05-21T05:57:48.294Z,1004.47
2017-05-21T05:58:58.654Z,1004.46
2017-05-21T06:00:08.376Z,1004.5
2017-05-21T06:01:18.724Z,1004.5
2017-05-21T06:02:29.059Z,1004.48
2017-05-21T06:03:39.408Z,1004.57
2017-05-21T06:04:49.764Z,1004.53
2017-05-21T06:05:59.812Z,1004.52
2017-05-21T06:07:10.200Z,1004.5
2017-05-21T06:08:20.548Z,1004.49
2017-05-21T06:09:30.270Z,1004.56
2017-05-21T06:10:40.662Z,1004.54
2017-05-21T06:11:50.688Z,1004.55
2017-05-21T06:13:00.736Z,1004.55
2017-05-21T06:14:10.769Z,1004.58
2017-05-21T06:15:20.802Z,1004.6
2017-05-21T06:16:31.140Z,1004.56
2017-05-21T06:17:41.481Z,1004.58
2017-05-21T06:18:51.832Z,1004.6
2017-05-21T06:20:02.239Z,1004.71
2017-05-21T06:21:12.597Z,1004.65
2017-05-21T06:22:22.948Z,1004.64
2017-05-21T06:23:33.310Z,1004.62
2017-05-21T06:24:43.653Z,1004.65
2017-05-21T06:25:53.899Z,1004.63
2017-05-21T06:27:03.613Z,1004.67
2017-05-21T06:28:13.667Z,1004.61
2017-05-21T06:29:23.694Z,1004.62
2017-05-21T06:30:33.706Z,1004.62
2017-05-21T06:31:43.432Z,1004.68
2017-05-21T06:32:53.794Z,1004.72
2017-05-21T06:34:04.167Z,1004.7
2017-05-21T06:35:14.213Z,1004.77
2017-05-21T06:36:24.558Z,1004.69
2017-05-21T06:37:34.947Z,1004.69
2017-05-21T06:38:44.979Z,1004.83
2017-05-21T06:39:55.326Z,1004.8
2017-05-21T06:41:05.672Z,1004.76
2017-05-21T06:42:16.070Z,1004.74
2017-05-21T06:43:25.512Z,1004.78
2017-05-21T06:44:35.866Z,1004.8
2017-05-21T06:45:45.598Z,1004.78
2017-05-21T06:46:55.642Z,1004.81
2017-05-21T06:48:05.679Z,1004.75
2017-05-21T06:49:15.744Z,1004.77
2017-05-21T06:50:25.790Z,1004.85
2017-05-21T06:51:35.818Z,1004.83
2017-05-21T06:52:46.178Z,1004.9
2017-05-21T06:53:56.543Z,1004.85
2017-05-21T06:55:06.953Z,1004.87
2017-05-21T06:56:17.055Z,1004.91
2017-05-21T06:57:27.466Z,1004.89
2017-05-21T06:58:37.831Z,1004.92
2017-05-21T06:59:48.194Z,1004.87
2017-05-21T07:00:58.603Z,1004.84
2017-05-21T07:02:08.844Z,1004.97
2017-05-21T07:03:19.220Z,1004.91
2017-05-21T07:04:29.563Z,1004.93
2017-05-21T07:05:39.602Z,1004.96
2017-05-21T07:06:49.685Z,1004.94
2017-05-21T07:08:00.057Z,1004.96
2017-05-21T07:09:10.102Z,1005.08
2017-05-21T07:10:20.451Z,1005.01
2017-05-21T07:11:30.814Z,1005.05
2017-05-21T07:12:41.177Z,1005.01
2017-05-21T07:13:51.223Z,1005
2017-05-21T07:15:01.577Z,1005
2017-05-21T07:16:11.915Z,1005.03
2017-05-21T07:17:22.267Z,1004.99
2017-05-21T07:18:32.373Z,1005.01
2017-05-21T07:19:42.727Z,1005.08
2017-05-21T07:20:53.078Z,1005.06
2017-05-21T07:22:03.438Z,1004.92
2017-05-21T07:23:13.865Z,1005.02
2017-05-21T07:24:24.337Z,1004.99
2017-05-21T07:25:34.450Z,1005.03
2017-05-21T07:26:44.810Z,1004.94
2017-05-21T07:27:55.167Z,1005.02
2017-05-21T07:29:05.519Z,1005.01
2017-05-21T07:30:15.622Z,1005.04
2017-05-21T07:31:25.696Z,1005
2017-05-21T07:32:36.123Z,1005.03
2017-05-21T07:33:46.483Z,1005.09
2017-05-21T07:34:56.214Z,1005.03
2017-05-21T07:36:06.620Z,1005.02
2017-05-21T07:37:16.978Z,1004.97
2017-05-21T07:38:27.334Z,1005.01
2017-05-21T07:39:37.676Z,1005.1
2017-05-21T07:40:48.029Z,1005.04
2017-05-21T07:41:58.390Z,1005.03
2017-05-21T07:43:08.731Z,1005.04
2017-05-21T07:44:19.093Z,1005.08
2017-05-21T07:45:29.451Z,1005.09
2017-05-21T07:46:39.807Z,1005.09
2017-05-21T07:47:50.203Z,1005.17
2017-05-21T07:49:00.579Z,1005.08
2017-05-21T07:50:10.947Z,1005.1
2017-05-21T07:51:21.312Z,1005.3
2017-05-21T07:52:31.868Z,1005.1
2017-05-21T07:53:42.227Z,1005.12
2017-05-21T07:54:52.278Z,1005.07
2017-05-21T07:56:02.639Z,1005.1
2017-05-21T07:57:12.982Z,1005.25
2017-05-21T07:58:23.335Z,1005.14
2017-05-21T07:59:33.368Z,1005.17
2017-05-21T08:00:43.412Z,1005.16
2017-05-21T08:01:53.770Z,1005.18
2017-05-21T08:03:04.136Z,1005.19
2017-05-21T08:04:14.509Z,1005.23
2017-05-21T08:05:24.919Z,1005.29
2017-05-21T08:06:35.286Z,1005.26
2017-05-21T08:07:45.009Z,1005.25
2017-05-21T08:08:55.051Z,1005.13
2017-05-21T08:10:05.417Z,1005.18
2017-05-21T08:11:15.844Z,1005.22
2017-05-21T08:12:26.265Z,1005.18
2017-05-21T08:13:36.297Z,1005.21
2017-05-21T08:14:46.653Z,1005.18
2017-05-21T08:15:57.010Z,1005.18
2017-05-21T08:17:07.416Z,1005.14
2017-05-21T08:18:17.769Z,1005.11
2017-05-21T08:19:27.828Z,1005.18
2017-05-21T08:20:37.872Z,1005.22
2017-05-21T08:21:47.293Z,1005.17
2017-05-21T08:22:57.672Z,1005.26
2017-05-21T08:24:07.732Z,1005.23
2017-05-21T08:25:18.075Z,1005.21
2017-05-21T08:26:28.432Z,1005.14
2017-05-21T08:27:38.778Z,1005.13
2017-05-21T08:28:48.832Z,1005.24
2017-05-21T08:29:59.182Z,1005.19
2017-05-21T08:31:09.589Z,1005.29
2017-05-21T08:32:19.942Z,1005.24
2017-05-21T08:33:30.295Z,1005.37
2017-05-21T08:34:40.355Z,1005.24
2017-05-21T08:35:50.702Z,1005.17
2017-05-21T08:37:01.083Z,1005.29
2017-05-21T08:38:10.865Z,1005.25
2017-05-21T08:39:20.607Z,1005.29
2017-05-21T08:40:30.949Z,1005.26
2017-05-21T08:41:41.307Z,1005.23
2017-05-21T08:42:51.382Z,1005.19
2017-05-21T08:44:01.422Z,1005.19
2017-05-21T08:45:11.778Z,1005.3
2017-05-21T08:46:22.141Z,1005.21
2017-05-21T08:47:32.497Z,1005.18
2017-05-21T08:48:42.876Z,1005.25
2017-05-21T08:49:52.988Z,1005.26
2017-05-21T08:51:03.240Z,1005.25
2017-05-21T08:52:13.604Z,1005.2
2017-05-21T08:53:23.661Z,1005.21
2017-05-21T08:54:33.709Z,1005.24
2017-05-21T08:55:44.134Z,1005.31
2017-05-21T08:56:54.490Z,1005.26
2017-05-21T08:58:04.867Z,1005.36
2017-05-21T08:59:15.229Z,1005.32
2017-05-21T09:00:25.595Z,1005.43
2017-05-21T09:01:35.696Z,1005.33
2017-05-21T09:02:46.055Z,1005.33
2017-05-21T09:03:56.405Z,1005.35
2017-05-21T09:05:06.786Z,1005.32
2017-05-21T09:06:17.146Z,1005.4
2017-05-21T09:07:27.258Z,1005.31
2017-05-21T09:08:37.296Z,1005.42
2017-05-21T09:09:47.657Z,1005.4
2017-05-21T09:10:57.697Z,1005.62
2017-05-21T09:12:07.754Z,1005.43
2017-05-21T09:13:17.864Z,1005.42
2017-05-21T09:14:28.220Z,1005.4
2017-05-21T09:15:37.658Z,1005.38
2017-05-21T09:16:47.395Z,1005.44
2017-05-21T09:17:57.757Z,1005.29
2017-05-21T09:19:08.192Z,1005.38
2017-05-21T09:20:18.545Z,1005.34
2017-05-21T09:21:28.911Z,1005.4
2017-05-21T09:22:39.295Z,1005.43
2017-05-21T09:23:49.708Z,1005.31
2017-05-21T09:25:00.091Z,1005.41
2017-05-21T09:26:09.819Z,1005.38
2017-05-21T09:27:20.167Z,1005.36
2017-05-21T09:28:30.541Z,1005.39
2017-05-21T09:29:40.918Z,1005.33
2017-05-21T09:30:51.264Z,1005.38
2017-05-21T09:32:01.645Z,1005.45
2017-05-21T09:33:12.028Z,1005.41
2017-05-21T09:34:22.101Z,1005.39
2017-05-21T09:35:31.904Z,1005.42
2017-05-21T09:36:42.319Z,1005.4
2017-05-21T09:37:52.673Z,1005.43
2017-05-21T09:39:02.736Z,1005.39
2017-05-21T09:40:13.102Z,1005.47
2017-05-21T09:41:23.460Z,1005.47
2017-05-21T09:42:33.875Z,1005.51
2017-05-21T09:43:43.923Z,1005.49
2017-05-21T09:44:53.979Z,1005.44
2017-05-21T09:46:04.345Z,1005.44
2017-05-21T09:47:14.699Z,1005.51
2017-05-21T09:48:24.812Z,1005.51
2017-05-21T09:49:34.873Z,1005.55
2017-05-21T09:50:44.934Z,1005.54
2017-05-21T09:51:55.289Z,1005.4
2017-05-21T09:53:05.653Z,1005.45
2017-05-21T09:54:16.030Z,1005.4
2017-05-21T09:55:26.408Z,1005.51
2017-05-21T09:56:36.752Z,1005.5
2017-05-21T09:57:46.808Z,1005.46
2017-05-21T09:58:56.585Z,1005.48
2017-05-21T10:00:06.987Z,1005.49
2017-05-21T10:01:17.333Z,1005.53
2017-05-21T10:02:27.681Z,1005.49
2017-05-21T10:03:37.735Z,1005.36
2017-05-21T10:04:47.484Z,1005.37
2017-05-21T10:05:57.890Z,1005.45
2017-05-21T10:07:08.260Z,1005.45
2017-05-21T10:08:18.596Z,1005.42
2017-05-21T10:09:28.684Z,1005.4
2017-05-21T10:10:38.413Z,1005.44
2017-05-21T10:11:48.201Z,1005.35
2017-05-21T10:12:58.567Z,1005.33
2017-05-21T10:14:08.938Z,1005.49
2017-05-21T10:15:19.508Z,1005.35
2017-05-21T10:16:29.858Z,1005.39
2017-05-21T10:17:40.204Z,1005.58
2017-05-21T10:18:50.000Z,1005.34
2017-05-21T10:20:00.041Z,1005.39
2017-05-21T10:21:09.774Z,1005.48
2017-05-21T10:22:20.166Z,1005.48
2017-05-21T10:23:29.881Z,1005.4
2017-05-21T10:24:40.247Z,1005.42
2017-05-21T10:25:50.610Z,1005.47
2017-05-21T10:27:00.984Z,1005.45
2017-05-21T10:28:11.366Z,1005.42
2017-05-21T10:29:21.091Z,1005.5
2017-05-21T10:30:31.465Z,1005.47
2017-05-21T10:31:41.821Z,1005.38
2017-05-21T10:32:52.186Z,1005.42
2017-05-21T10:34:02.542Z,1005.42
2017-05-21T10:35:12.911Z,1005.44
2017-05-21T10:36:23.324Z,1005.39
2017-05-21T10:37:33.679Z,1005.34
2017-05-21T10:38:43.721Z,1005.31
2017-05-21T10:39:54.082Z,1005.31
2017-05-21T10:41:03.820Z,1005.23
2017-05-21T10:42:13.868Z,1005.34
2017-05-21T10:43:23.909Z,1005.32
2017-05-21T10:44:33.660Z,1005.46
2017-05-21T10:45:44.018Z,1005.35
2017-05-21T10:46:54.366Z,1005.29
2017-05-21T10:48:04.403Z,1005.28
2017-05-21T10:49:14.760Z,1005.37
2017-05-21T10:50:25.150Z,1005.3
2017-05-21T10:51:35.506Z,1005.22
2017-05-21T10:52:45.877Z,1005.27
2017-05-21T10:53:55.922Z,1005.35
2017-05-21T10:55:05.963Z,1005.3
2017-05-21T10:56:16.322Z,1005.3
2017-05-21T10:57:26.917Z,1005.32
2017-05-21T10:58:37.333Z,1005.26
2017-05-21T10:59:47.400Z,1005.37
2017-05-21T11:00:57.461Z,1005.35
2017-05-21T11:02:07.500Z,1005.35
2017-05-21T11:03:17.847Z,1005.3
2017-05-21T11:04:27.901Z,1005.49
2017-05-21T11:05:37.957Z,1005.28
2017-05-21T11:06:47.940Z,1005.32
2017-05-21T11:07:57.977Z,1005.28
2017-05-21T11:09:08.013Z,1005.22
2017-05-21T11:10:18.066Z,1005.27
2017-05-21T11:11:28.432Z,1005.24
2017-05-21T11:12:38.501Z,1005.2
2017-05-21T11:13:48.864Z,1005.34
2017-05-21T11:14:59.235Z,1005.27
2017-05-21T11:16:09.611Z,1005.24
2017-05-21T11:17:19.964Z,1005.23
2017-05-21T11:18:30.324Z,1005.23
2017-05-21T11:19:40.383Z,1005.25
2017-05-21T11:20:50.510Z,1005.23
2017-05-21T11:22:00.877Z,1005.26
2017-05-21T11:23:11.234Z,1005.2
2017-05-21T11:24:21.321Z,1005.25
2017-05-21T11:25:31.368Z,1005.26
2017-05-21T11:26:41.730Z,1005.15
2017-05-21T11:27:51.821Z,1005.18
2017-05-21T11:29:01.863Z,1005.25
2017-05-21T11:30:12.221Z,1005.29
2017-05-21T11:31:22.278Z,1005.18
2017-05-21T11:32:32.321Z,1005.13
2017-05-21T11:33:42.745Z,1005.09
2017-05-21T11:34:53.113Z,1005.16
2017-05-21T11:36:03.152Z,1005.16
2017-05-21T11:37:13.504Z,1005.16
2017-05-21T11:38:23.864Z,1005.42
2017-05-21T11:39:34.274Z,1005.14
2017-05-21T11:40:44.640Z,1005.25
2017-05-21T11:41:54.363Z,1005.22
2017-05-21T11:43:04.752Z,1005.09
2017-05-21T11:44:15.115Z,1005.18
2017-05-21T11:45:25.474Z,1005.12
2017-05-21T11:46:35.513Z,1005.19
2017-05-21T11:47:45.887Z,1005.31
2017-05-21T11:48:56.235Z,1005.1
2017-05-21T11:50:06.289Z,1005.14
2017-05-21T11:51:16.687Z,1005.16
2017-05-21T11:52:27.047Z,1005.14
2017-05-21T11:53:37.415Z,1005.13
2017-05-21T11:54:47.786Z,1005.05
2017-05-21T11:55:58.390Z,1005.11
2017-05-21T11:57:08.758Z,1005.1
2017-05-21T11:58:19.141Z,1005.08
2017-05-21T11:59:29.503Z,1005.11
2017-05-21T12:00:39.860Z,1005.24
2017-05-21T12:01:49.921Z,1005.11
2017-05-21T12:03:00.287Z,1005.03
2017-05-21T12:04:10.650Z,1004.98
2017-05-21T12:05:20.988Z,1004.98
2017-05-21T12:06:31.025Z,1005
2017-05-21T12:07:40.749Z,1004.9
2017-05-21T12:08:50.839Z,1004.94
2017-05-21T12:10:01.228Z,1004.9
2017-05-21T12:11:11.597Z,1004.97
2017-05-21T12:12:21.984Z,1005.07
2017-05-21T12:13:32.030Z,1004.95
2017-05-21T12:14:42.073Z,1004.94
2017-05-21T12:15:52.440Z,1004.96
2017-05-21T12:17:02.500Z,1004.96
2017-05-21T12:18:12.566Z,1005.03
2017-05-21T12:19:22.926Z,1004.89
2017-05-21T12:20:33.275Z,1004.91
2017-05-21T12:21:43.633Z,1004.9
2017-05-21T12:22:53.992Z,1004.94
2017-05-21T12:24:04.343Z,1005.08
2017-05-21T12:25:14.696Z,1004.79
2017-05-21T12:26:25.073Z,1004.9
2017-05-21T12:27:35.437Z,1004.94
2017-05-21T12:28:45.482Z,1005
2017-05-21T12:29:55.855Z,1004.92
2017-05-21T12:31:06.212Z,1004.73
2017-05-21T12:32:16.638Z,1004.92
2017-05-21T12:33:27.000Z,1004.93
2017-05-21T12:34:37.047Z,1004.99
2017-05-21T12:35:47.120Z,1005.11
2017-05-21T12:36:57.165Z,1004.86
2017-05-21T12:38:07.568Z,1004.89
2017-05-21T12:39:17.937Z,1004.8
2017-05-21T12:40:28.295Z,1004.83
2017-05-21T12:41:38.693Z,1004.8
2017-05-21T12:42:49.066Z,1005.04
2017-05-21T12:43:59.493Z,1004.87
2017-05-21T12:45:09.529Z,1004.86
2017-05-21T12:46:19.885Z,1004.83
2017-05-21T12:47:30.239Z,1004.78
2017-05-21T12:48:40.625Z,1004.76
2017-05-21T12:49:50.738Z,1004.78
2017-05-21T12:51:01.093Z,1004.84
2017-05-21T12:52:11.139Z,1004.66
2017-05-21T12:53:21.202Z,1004.7
2017-05-21T12:54:31.558Z,1004.64
2017-05-21T12:55:42.046Z,1004.6
2017-05-21T12:56:52.382Z,1004.63
2017-05-21T12:58:02.752Z,1004.67
2017-05-21T12:59:13.112Z,1004.73
2017-05-21T13:00:22.908Z,1004.71
2017-05-21T13:01:33.286Z,1004.84
2017-05-21T13:02:43.671Z,1004.79
2017-05-21T13:03:53.725Z,1004.66
2017-05-21T13:05:03.756Z,1004.73
2017-05-21T13:06:13.798Z,1004.73
2017-05-21T13:07:24.164Z,1004.63
2017-05-21T13:08:34.513Z,1004.64
2017-05-21T13:09:44.560Z,1004.58
2017-05-21T13:10:54.616Z,1004.59
2017-05-21T13:12:04.976Z,1004.64
2017-05-21T13:13:15.405Z,1004.7
2017-05-21T13:14:25.752Z,1004.78
2017-05-21T13:15:36.110Z,1004.59
2017-05-21T13:16:46.152Z,1004.71
2017-05-21T13:17:56.216Z,1004.55
2017-05-21T13:19:06.574Z,1004.58
2017-05-21T13:20:16.626Z,1004.51
2017-05-21T13:21:26.678Z,1004.54
2017-05-21T13:22:36.718Z,1004.52
2017-05-21T13:23:47.070Z,1004.53
2017-05-21T13:24:57.435Z,1004.57
2017-05-21T13:26:07.505Z,1004.49
2017-05-21T13:27:17.847Z,1004.54
2017-05-21T13:28:28.219Z,1004.48
2017-05-21T13:29:38.274Z,1004.39
2017-05-21T13:30:48.631Z,1004.54
2017-05-21T13:31:59.001Z,1004.51
2017-05-21T13:33:09.348Z,1004.42
2017-05-21T13:34:19.705Z,1004.43
2017-05-21T13:35:30.310Z,1004.42
2017-05-21T13:36:40.358Z,1004.38
2017-05-21T13:37:50.394Z,1004.46
2017-05-21T13:39:00.754Z,1004.45
2017-05-21T13:40:10.795Z,1004.38
2017-05-21T13:41:21.156Z,1004.43
2017-05-21T13:42:31.584Z,1004.39
2017-05-21T13:43:41.948Z,1004.39
2017-05-21T13:44:52.307Z,1004.37
2017-05-21T13:46:02.867Z,1004.35
2017-05-21T13:47:13.227Z,1004.31
2017-05-21T13:48:23.592Z,1004.45
2017-05-21T13:49:33.947Z,1004.29
2017-05-21T13:50:44.333Z,1004.24
2017-05-21T13:51:54.686Z,1004.24
2017-05-21T13:53:05.059Z,1004.21
2017-05-21T13:54:15.438Z,1004.21
2017-05-21T13:55:25.174Z,1004.27
2017-05-21T13:56:35.523Z,1004.25
2017-05-21T13:57:45.549Z,1004.27
2017-05-21T13:58:55.908Z,1004.15
2017-05-21T14:00:06.339Z,1004.27
2017-05-21T14:01:16.396Z,1004.24
2017-05-21T14:02:26.775Z,1004.13
2017-05-21T14:03:37.183Z,1004.17
2017-05-21T14:04:47.535Z,1004.22
2017-05-21T14:05:57.894Z,1004.14
2017-05-21T14:07:08.235Z,1004.19
2017-05-21T14:08:18.349Z,1004.28
2017-05-21T14:09:28.391Z,1004.11
2017-05-21T14:10:38.952Z,1004.18
2017-05-21T14:11:49.327Z,1004.16
2017-05-21T14:12:59.415Z,1004.16
2017-05-21T14:14:09.762Z,1004.07
2017-05-21T14:15:20.110Z,1004.2
2017-05-21T14:16:30.481Z,1004.12
2017-05-21T14:17:40.903Z,1004.2
2017-05-21T14:18:51.277Z,1004.16
2017-05-21T14:20:01.336Z,1004.13
2017-05-21T14:21:11.684Z,1004.11
2017-05-21T14:22:22.031Z,1004.08
2017-05-21T14:23:32.388Z,1004.08
2017-05-21T14:24:42.758Z,1003.96
2017-05-21T14:25:52.484Z,1004.06
2017-05-21T14:27:02.845Z,1004.14
2017-05-21T14:28:12.943Z,1003.95
2017-05-21T14:29:22.998Z,1003.98
2017-05-21T14:30:33.365Z,1003.98
2017-05-21T14:31:43.602Z,1004.09
2017-05-21T14:32:53.978Z,1003.99
2017-05-21T14:34:04.343Z,1003.98
2017-05-21T14:35:14.683Z,1003.9
2017-05-21T14:36:24.745Z,1003.96
2017-05-21T14:37:34.808Z,1004.02
2017-05-21T14:38:44.856Z,1003.96
2017-05-21T14:39:55.216Z,1003.93
2017-05-21T14:41:05.618Z,1003.99
2017-05-21T14:42:15.985Z,1004.02